createdAt,value
2019-01-09T00:04:39.400Z,1.73
2019-01-09T00:14:49.123Z,1.65
2019-01-09T00:19:55.031Z,1.70
2019-01-09T00:25:00.849Z,1.61
2019-01-09T00:30:07.335Z,1.41
2019-01-09T00:35:13.271Z,1.54
2019-01-09T00:40:19.938Z,1.55
2019-01-09T00:45:25.921Z,1.49
2019-01-09T00:50:32.259Z,1.55
2019-01-09T00:55:38.580Z,1.45
2019-01-09T01:00:44.747Z,1.60
2019-01-09T01:06:36.216Z,1.52
2019-01-09T01:12:42.229Z,1.66
2019-01-09T01:18:25.952Z,1.54
2019-01-09T01:24:28.054Z,1.32
2019-01-09T01:30:17.352Z,1.21
2019-01-09T01:35:59.489Z,1.36
2019-01-09T01:41:18.752Z,1.31
2019-01-09T01:47:15.121Z,1.29
2019-01-09T01:52:44.907Z,1.31
2019-01-09T01:58:17.761Z,1.17
2019-01-09T02:04:37.683Z,1.11
2019-01-09T02:10:10.999Z,1.20
2019-01-09T02:15:54.695Z,1.10
2019-01-09T02:21:30.215Z,1.35
2019-01-09T02:26:50.956Z,1.05
2019-01-09T02:32:28.221Z,1.09
2019-01-09T02:37:34.020Z,1.23
2019-01-09T02:42:39.958Z,0.95
2019-01-09T02:47:45.766Z,0.98
2019-01-09T02:52:51.539Z,0.79
2019-01-09T02:57:57.817Z,1.07
2019-01-09T03:03:04.125Z,1.08
2019-01-09T03:08:10.406Z,1.01
2019-01-09T03:13:16.946Z,1.00
2019-01-09T03:18:22.941Z,1.00
2019-01-09T03:23:30.276Z,0.85
2019-01-09T03:28:36.641Z,0.89
2019-01-09T03:33:42.485Z,0.91
2019-01-09T03:38:48.691Z,1.06
2019-01-09T03:43:57.938Z,0.98
2019-01-09T03:49:03.833Z,0.84
2019-01-09T03:54:09.632Z,1.00
2019-01-09T03:59:15.433Z,0.76
2019-01-09T04:04:22.106Z,0.85
2019-01-09T04:09:27.898Z,0.76
2019-01-09T04:14:33.680Z,0.96
2019-01-09T04:19:40.889Z,0.84
2019-01-09T04:24:46.595Z,0.89
2019-01-09T04:29:52.379Z,0.80
2019-01-09T04:34:58.706Z,0.87
2019-01-09T04:40:06.726Z,0.87
2019-01-09T04:45:12.824Z,0.85
2019-01-09T04:50:18.599Z,0.96
2019-01-09T04:55:24.586Z,0.89
2019-01-09T05:00:30.514Z,0.98
2019-01-09T05:05:36.312Z,0.91
2019-01-09T05:10:43.206Z,0.93
2019-01-09T05:15:49.355Z,0.99
2019-01-09T05:20:55.056Z,0.92
2019-01-09T05:26:00.946Z,1.03
2019-01-09T05:31:08.059Z,0.95
2019-01-09T05:36:14.506Z,1.02
2019-01-09T05:41:22.530Z,0.56
2019-01-09T05:46:30.448Z,0.87
2019-01-09T05:51:36.208Z,0.52
2019-01-09T05:56:42.884Z,0.52
2019-01-09T06:01:49.094Z,0.66
2019-01-09T06:06:56.253Z,0.73
2019-01-09T06:12:06.305Z,0.84
2019-01-09T06:17:13.059Z,0.75
2019-01-09T06:22:21.680Z,0.89
2019-01-09T06:27:27.551Z,0.86
2019-01-09T06:32:33.705Z,0.56
2019-01-09T06:37:39.880Z,0.69
2019-01-09T06:42:45.937Z,0.71
2019-01-09T06:47:52.432Z,0.56
2019-01-09T06:53:02.020Z,0.83
2019-01-09T06:58:07.752Z,0.54
2019-01-09T07:03:16.082Z,0.43
2019-01-09T07:08:22.048Z,0.49
2019-01-09T07:13:27.877Z,0.78
2019-01-09T07:18:35.186Z,0.72
2019-01-09T07:23:41.036Z,1.04
2019-01-09T07:28:47.002Z,0.85
2019-01-09T07:38:57.894Z,1.04
2019-01-09T07:44:03.679Z,0.72
2019-01-09T07:49:10.202Z,0.56
2019-01-09T07:54:16.547Z,0.74
2019-01-09T07:59:22.340Z,1.08
2019-01-09T08:04:32.447Z,1.09
2019-01-09T08:09:38.565Z,0.77
2019-01-09T08:14:44.430Z,0.96
2019-01-09T08:19:50.284Z,0.75
2019-01-09T08:24:56.247Z,0.91
2019-01-09T08:30:03.417Z,0.79
2019-01-09T08:35:10.523Z,1.08
2019-01-09T08:40:17.805Z,1.17
2019-01-09T08:45:23.666Z,0.86
2019-01-09T08:50:30.150Z,1.14
2019-01-09T08:55:36.722Z,1.16
2019-01-09T09:00:42.798Z,1.53
2019-01-09T09:05:48.669Z,1.23
2019-01-09T09:10:54.537Z,1.11
2019-01-09T09:16:00.545Z,1.20
2019-01-09T09:21:07.654Z,1.27
2019-01-09T09:26:13.580Z,1.07
2019-01-09T09:31:19.417Z,1.09
2019-01-09T09:36:26.772Z,1.09
2019-01-09T09:41:33.124Z,1.31
2019-01-09T09:46:39.087Z,1.30
2019-01-09T09:51:47.108Z,1.82
2019-01-09T09:56:53.035Z,1.51
2019-01-09T10:01:58.805Z,1.97
2019-01-09T10:07:06.150Z,1.75
2019-01-09T10:12:12.765Z,1.41
2019-01-09T10:17:18.639Z,1.66
2019-01-09T10:22:24.457Z,1.78
2019-01-09T10:27:30.695Z,1.55
2019-01-09T10:32:36.703Z,1.85
2019-01-09T10:37:45.879Z,1.79
2019-01-09T10:42:51.695Z,1.97
2019-01-09T10:47:57.704Z,1.37
2019-01-09T10:53:03.588Z,1.26
2019-01-09T10:58:12.272Z,1.19
2019-01-09T11:04:48.995Z,1.19
2019-01-09T11:09:54.829Z,1.69
2019-01-09T11:15:00.731Z,1.29
2019-01-09T11:20:11.091Z,1.46
2019-01-09T11:25:22.548Z,1.70
2019-01-09T11:30:28.381Z,1.29
2019-01-09T11:35:34.406Z,1.62
2019-01-09T11:40:40.310Z,1.46
2019-01-09T11:45:46.260Z,1.45
2019-01-09T11:50:52.068Z,1.52
2019-01-09T11:55:58.429Z,1.92
2019-01-09T12:01:06.676Z,1.61
2019-01-09T12:06:12.983Z,1.13
2019-01-09T12:11:19.073Z,1.22
2019-01-09T12:16:25.585Z,1.20
2019-01-09T12:21:31.399Z,1.05
2019-01-09T12:26:37.189Z,0.90
2019-01-09T12:36:47.972Z,1.11
2019-01-09T12:41:53.702Z,1.03
2019-01-09T12:46:59.486Z,1.14
2019-01-09T12:52:05.549Z,1.40
2019-01-09T12:57:11.712Z,0.80
2019-01-09T13:02:17.901Z,1.07
2019-01-09T13:07:24.116Z,0.85
2019-01-09T13:12:29.914Z,0.82
2019-01-09T13:17:35.695Z,1.00
2019-01-09T13:27:46.502Z,0.87
2019-01-09T13:32:52.530Z,1.08
2019-01-09T13:37:58.299Z,0.79
2019-01-09T13:43:05.597Z,0.59
2019-01-09T13:48:12.289Z,0.61
2019-01-09T13:53:17.213Z,0.59
2019-01-09T13:58:22.980Z,0.83
2019-01-09T14:03:30.455Z,0.63
2019-01-09T14:08:36.280Z,0.64
2019-01-09T14:13:42.278Z,0.90
2019-01-09T14:18:55.218Z,0.57
2019-01-09T14:23:56.642Z,0.43
2019-01-09T14:29:03.741Z,0.91
2019-01-09T14:34:13.258Z,0.69
2019-01-09T14:39:19.103Z,0.58
2019-01-09T14:44:25.036Z,1.09
2019-01-09T14:49:30.980Z,0.65
2019-01-09T14:54:36.764Z,0.79
2019-01-09T14:59:42.724Z,0.59
2019-01-09T15:04:48.933Z,0.63
2019-01-09T15:09:56.768Z,0.63
2019-01-09T15:15:06.849Z,0.69
2019-01-09T15:20:15.099Z,0.83
2019-01-09T15:25:22.849Z,0.66
2019-01-09T15:30:32.275Z,0.58
2019-01-09T15:35:42.470Z,0.70
2019-01-09T15:40:48.283Z,0.72
2019-01-09T15:45:54.336Z,0.82
2019-01-09T15:51:00.590Z,0.52
2019-01-09T15:56:06.872Z,0.58
2019-01-09T16:01:13.488Z,0.81
2019-01-09T16:06:19.848Z,0.71
2019-01-09T16:11:28.256Z,0.83
2019-01-09T16:21:44.029Z,0.87
2019-01-09T16:26:49.844Z,0.67
2019-01-09T16:31:56.354Z,0.90
2019-01-09T16:37:02.697Z,0.96
2019-01-09T16:42:09.085Z,0.76
2019-01-09T16:47:14.898Z,0.75
2019-01-09T16:52:24.253Z,0.71
2019-01-09T16:57:30.127Z,0.68
2019-01-09T17:02:36.780Z,0.58
2019-01-09T17:07:42.957Z,0.48
2019-01-09T17:12:48.775Z,0.73
2019-01-09T17:17:55.195Z,0.64
2019-01-09T17:23:02.970Z,0.69
2019-01-09T17:28:09.542Z,0.64
2019-01-09T17:33:15.726Z,0.95
2019-01-09T17:38:24.398Z,0.56
2019-01-09T17:43:30.504Z,0.58
2019-01-09T17:48:36.624Z,0.47
2019-01-09T17:53:45.079Z,0.64
2019-01-09T17:58:51.649Z,0.57
2019-01-09T18:03:58.686Z,0.55
2019-01-09T18:09:09.064Z,0.57
2019-01-09T18:14:18.595Z,0.57
2019-01-09T18:19:25.128Z,0.46
2019-01-09T18:24:32.635Z,0.44
2019-01-09T18:29:38.600Z,0.48
2019-01-09T18:35:17.220Z,0.37
2019-01-09T18:41:10.669Z,0.61
2019-01-09T18:46:50.528Z,0.55
2019-01-09T18:52:10.827Z,0.54
2019-01-09T18:57:20.475Z,0.43
2019-01-09T19:02:29.364Z,0.45
2019-01-09T19:07:36.146Z,0.49
2019-01-09T19:17:45.417Z,0.54
2019-01-09T19:22:53.748Z,0.61
2019-01-09T19:27:59.854Z,0.58
2019-01-09T19:33:06.204Z,0.79
2019-01-09T19:38:12.192Z,0.61
2019-01-09T19:43:22.837Z,0.75
2019-01-09T19:48:30.243Z,0.55
2019-01-09T19:53:43.231Z,0.74
2019-01-09T19:58:51.312Z,0.70
2019-01-09T20:09:02.432Z,0.52
2019-01-09T20:14:10.196Z,0.78
2019-01-09T20:19:17.585Z,0.83
2019-01-09T20:24:23.235Z,0.66
2019-01-09T20:29:29.267Z,0.88
2019-01-09T20:34:35.153Z,0.72
2019-01-09T20:39:43.525Z,0.78
2019-01-09T20:44:50.019Z,0.76
2019-01-09T20:49:58.040Z,0.59
2019-01-09T20:55:04.867Z,0.84
2019-01-09T21:00:19.200Z,0.84
2019-01-09T21:05:30.226Z,0.59
2019-01-09T21:10:36.514Z,0.61
2019-01-09T21:15:45.727Z,1.01
2019-01-09T21:20:53.197Z,0.89
2019-01-09T21:26:05.242Z,1.07
2019-01-09T21:31:12.282Z,0.79
2019-01-09T21:36:18.152Z,1.33
2019-01-09T21:41:24.025Z,1.32
2019-01-09T21:46:35.135Z,1.11
2019-01-09T21:51:40.911Z,1.16
2019-01-09T21:56:46.815Z,1.20
2019-01-09T22:01:52.747Z,1.33
2019-01-09T22:07:01.420Z,1.33
2019-01-09T22:17:27.128Z,1.01
2019-01-09T22:22:32.967Z,1.31
2019-01-09T22:27:38.803Z,1.12
2019-01-09T22:32:47.853Z,1.17
2019-01-09T22:37:53.741Z,1.10
2019-01-09T22:43:00.401Z,1.34
2019-01-09T22:48:06.461Z,1.21
2019-01-09T22:53:12.305Z,0.97
2019-01-09T22:58:18.129Z,1.45
2019-01-09T23:03:24.080Z,1.34
2019-01-09T23:08:30.193Z,1.31
2019-01-09T23:13:36.077Z,1.27
2019-01-09T23:18:41.926Z,1.37
2019-01-09T23:23:48.530Z,1.37
2019-01-09T23:28:54.381Z,1.17
2019-01-09T23:34:00.383Z,1.38
2019-01-09T23:39:11.089Z,1.09
2019-01-09T23:44:17.629Z,0.89
2019-01-09T23:49:23.753Z,1.30
2019-01-09T23:54:40.596Z,1.21
2019-01-09T23:59:46.632Z,1.61
